Time;durP1;ratioP1;P1;durP2;ratioP2;P2;SDS_P1;SDS_P2;PMS_P1;PMS_P2;Temp;Humidity;BMP_temperature;BMP_pressure;BME280_temperature;BME280_humidity;BME280_pressure;Samples;Min_cycle;Max_cycle;Signal;HPM_P1;HPM_P2
2022/03/10 00:02:26;;;;;;;11.57;8.10;;;1.40;92.30;;;;;;5054147;28;20211;-68
2022/03/10 00:04:52;;;;;;;13.95;6.95;;;1.40;92.70;;;;;;5053216;28;20567;-67
2022/03/10 00:07:18;;;;;;;11.23;7.90;;;1.30;92.90;;;;;;5053507;28;20208;-67
2022/03/10 00:09:43;;;;;;;8.53;7.67;;;1.40;93.20;;;;;;5053549;28;20184;-67
2022/03/10 00:12:10;;;;;;;13.43;6.43;;;1.40;93.40;;;;;;5053729;28;20196;-67
2022/03/10 00:14:35;;;;;;;11.13;8.68;;;1.30;93.40;;;;;;5035069;28;20216;-67
2022/03/10 00:17:01;;;;;;;13.63;6.00;;;1.30;93.60;;;;;;5053536;28;20169;-67
2022/03/10 00:19:27;;;;;;;6.57;5.13;;;1.30;93.70;;;;;;5053350;28;20252;-67
2022/03/10 00:21:52;;;;;;;10.63;7.03;;;1.30;93.90;;;;;;5053492;28;20174;-67
2022/03/10 00:24:18;;;;;;;7.97;6.30;;;1.30;94.00;;;;;;5053057;28;20194;-67
2022/03/10 00:26:45;;;;;;;13.40;6.80;;;1.20;94.10;;;;;;5053724;28;20197;-67
2022/03/10 00:29:10;;;;;;;14.73;7.85;;;1.20;94.20;;;;;;5053190;28;20400;-67
2022/03/10 00:31:36;;;;;;;9.07;7.00;;;1.20;94.30;;;;;;5053183;28;20540;-67
2022/03/10 00:34:02;;;;;;;8.88;6.20;;;1.20;94.50;;;;;;5052790;28;20162;-67
2022/03/10 00:36:28;;;;;;;6.40;5.07;;;1.10;94.50;;;;;;5053640;28;20181;-68
2022/03/10 00:38:54;;;;;;;7.47;4.93;;;1.10;94.70;;;;;;5053370;28;20257;-67
2022/03/10 00:41:20;;;;;;;7.43;6.25;;;1.00;94.90;;;;;;5053059;28;20204;-67
2022/03/10 00:43:46;;;;;;;7.15;6.55;;;0.90;95.10;;;;;;5052961;28;20169;-67
2022/03/10 00:46:12;;;;;;;13.00;7.40;;;0.90;95.50;;;;;;5053096;28;20193;-67
2022/03/10 00:48:37;;;;;;;8.17;7.40;;;0.90;95.50;;;;;;5053295;28;20167;-67
2022/03/10 00:51:04;;;;;;;12.33;7.60;;;0.90;95.80;;;;;;5052861;28;20303;-67
2022/03/10 00:53:30;;;;;;;15.77;6.75;;;0.80;96.00;;;;;;5052837;28;20171;-68
2022/03/10 00:55:55;;;;;;;15.88;8.32;;;0.80;96.30;;;;;;5035217;28;20533;-68
2022/03/10 00:58:21;;;;;;;8.57;6.93;;;0.80;96.50;;;;;;5035286;28;20173;-68
2022/03/10 01:00:47;;;;;;;10.23;7.20;;;0.80;96.60;;;;;;5034965;28;20223;-68
2022/03/10 01:03:12;;;;;;;11.73;5.87;;;0.80;96.50;;;;;;5052869;28;20215;-68
2022/03/10 01:05:38;;;;;;;8.40;5.23;;;0.80;96.60;;;;;;5035236;28;20246;-67
2022/03/10 01:08:04;;;;;;;6.87;6.27;;;0.80;96.60;;;;;;5055226;28;20197;-67
2022/03/10 01:10:30;;;;;;;7.70;5.83;;;0.80;96.60;;;;;;5056836;28;20181;-67
2022/03/10 01:12:56;;;;;;;7.72;4.80;;;0.80;96.40;;;;;;5057065;28;20812;-68
2022/03/10 01:15:24;;;;;;;10.77;6.50;;;0.80;96.50;;;;;;5056883;28;20185;-67
2022/03/10 01:17:50;;;;;;;6.13;5.43;;;0.70;96.60;;;;;;5056929;28;20513;-66
2022/03/10 01:20:17;;;;;;;9.07;6.73;;;0.70;96.70;;;;;;5056662;28;20207;-67
2022/03/10 01:22:43;;;;;;;9.32;5.38;;;0.70;96.90;;;;;;5056903;28;20395;-69
2022/03/10 01:25:10;;;;;;;9.43;6.00;;;0.70;97.00;;;;;;5056507;28;20193;-66
2022/03/10 01:27:36;;;;;;;12.65;6.63;;;0.60;97.10;;;;;;5056697;28;20272;-66
2022/03/10 01:30:04;;;;;;;11.00;6.20;;;0.50;97.20;;;;;;5056403;28;20260;-67
2022/03/10 01:32:29;;;;;;;7.00;6.07;;;0.50;97.50;;;;;;5038711;28;20451;-67
2022/03/10 01:34:55;;;;;;;7.60;3.97;;;0.40;97.80;;;;;;5056171;28;20194;-67
2022/03/10 01:37:21;;;;;;;6.47;5.97;;;0.40;98.00;;;;;;5056479;28;20208;-67
2022/03/10 01:39:46;;;;;;;7.07;6.37;;;0.40;98.10;;;;;;5056440;28;20200;-67
2022/03/10 01:42:12;;;;;;;6.67;5.50;;;0.40;98.40;;;;;;5056579;28;20170;-67
2022/03/10 01:44:38;;;;;;;8.97;4.97;;;0.40;98.50;;;;;;5038047;28;20577;-68
2022/03/10 01:47:08;;;;;;;10.23;6.03;;;0.30;98.60;;;;;;5056162;28;20448;-67
2022/03/10 01:49:34;;;;;;;9.02;4.55;;;0.30;98.70;;;;;;5056187;28;20491;-66
2022/03/10 01:52:00;;;;;;;5.40;5.00;;;0.30;99.00;;;;;;5056303;28;20157;-67
2022/03/10 01:54:26;;;;;;;8.63;5.60;;;0.30;99.00;;;;;;5055707;28;20186;-68
2022/03/10 01:56:52;;;;;;;8.70;5.13;;;0.30;99.10;;;;;;5038385;28;20273;-68
2022/03/10 01:59:19;;;;;;;9.77;6.20;;;0.30;99.00;;;;;;5056117;28;20767;-69
2022/03/10 02:01:45;;;;;;;6.43;4.97;;;0.20;98.90;;;;;;5055861;28;20470;-68
2022/03/10 02:04:11;;;;;;;4.97;3.97;;;0.20;99.00;;;;;;5055221;28;20193;-67
2022/03/10 02:06:37;;;;;;;12.50;5.87;;;0.10;99.20;;;;;;5038135;28;20547;-67
2022/03/10 02:11:48;;;;;;;11.48;4.68;;;0.10;99.30;;;;;;5056080;28;20177;-67
2022/03/10 02:19:43;;;;;;;9.32;5.75;;;0.00;99.60;;;;;;5055011;28;20264;-68
2022/03/10 02:22:13;;;;;;;4.88;4.55;;;0.00;99.70;;;;;;5055670;28;20193;-67
2022/03/10 02:24:42;;;;;;;10.27;6.35;;;0.00;99.70;;;;;;5054945;28;20201;-69
2022/03/10 02:27:14;;;;;;;6.55;5.40;;;0.00;99.80;;;;;;5055360;28;20209;-68
2022/03/10 02:29:44;;;;;;;7.70;5.25;;;0.00;99.90;;;;;;5055706;28;20193;-68
2022/03/10 02:32:11;;;;;;;12.90;6.80;;;0.00;99.90;;;;;;5055088;28;20688;-68
2022/03/10 02:34:39;;;;;;;13.57;5.97;;;0.00;99.90;;;;;;5054877;28;20185;-67
2022/03/10 02:37:05;;;;;;;6.25;4.82;;;-0.10;99.90;;;;;;5055370;28;20249;-67
2022/03/10 02:39:31;;;;;;;6.38;4.43;;;-0.10;99.90;;;;;;5055597;28;20550;-67
2022/03/10 02:41:57;;;;;;;11.82;7.13;;;-0.10;99.90;;;;;;5055060;28;20174;-67
2022/03/10 02:44:23;;;;;;;6.33;5.80;;;-0.10;99.90;;;;;;5054511;28;20199;-67
2022/03/10 02:46:48;;;;;;;7.13;6.53;;;-0.10;99.90;;;;;;5055241;28;20220;-67
2022/03/10 02:49:15;;;;;;;9.33;6.73;;;0.00;99.90;;;;;;5055416;28;20519;-68
2022/03/10 02:51:41;;;;;;;8.70;5.32;;;-0.10;99.90;;;;;;5054661;28;20249;-67
2022/03/10 02:54:07;;;;;;;4.65;4.30;;;0.00;99.90;;;;;;5054711;28;20165;-67
2022/03/10 02:56:33;;;;;;;3.30;2.90;;;-0.10;99.90;;;;;;5055146;28;20177;-68
2022/03/10 02:58:58;;;;;;;5.75;3.92;;;-0.10;99.90;;;;;;5055060;28;20501;-67
2022/03/10 03:01:24;;;;;;;7.33;4.47;;;0.00;99.90;;;;;;5054643;28;20184;-68
2022/03/10 03:03:50;;;;;;;7.40;5.63;;;0.00;99.90;;;;;;5054388;28;20192;-69
2022/03/10 03:06:15;;;;;;;4.80;4.40;;;-0.10;99.90;;;;;;5054671;28;20224;-68
2022/03/10 03:08:41;;;;;;;15.93;6.77;;;-0.10;99.90;;;;;;5054742;28;20165;-68
2022/03/10 03:11:07;;;;;;;9.40;5.33;;;-0.10;99.90;;;;;;5054465;28;20980;-68
2022/03/10 03:13:32;;;;;;;11.60;5.83;;;-0.10;99.90;;;;;;5054373;28;20362;-68
2022/03/10 03:15:58;;;;;;;5.80;5.30;;;-0.20;99.90;;;;;;5054725;28;20289;-67
2022/03/10 03:18:24;;;;;;;10.03;5.17;;;-0.20;99.90;;;;;;5054569;28;20663;-68
2022/03/10 03:20:50;;;;;;;6.33;5.13;;;-0.20;99.90;;;;;;5054169;28;20228;-67
2022/03/10 03:23:16;;;;;;;8.80;5.57;;;-0.20;99.90;;;;;;5036197;28;20240;-67
2022/03/10 03:25:41;;;;;;;4.63;3.92;;;-0.20;99.90;;;;;;5054316;28;20246;-67
2022/03/10 03:28:07;;;;;;;6.40;3.60;;;-0.20;99.90;;;;;;5036434;28;20216;-67
2022/03/10 03:30:32;;;;;;;5.30;4.80;;;-0.30;99.90;;;;;;5053358;28;20212;-67
2022/03/10 03:32:58;;;;;;;3.63;3.23;;;-0.20;99.90;;;;;;5036598;28;20238;-68
2022/03/10 03:35:25;;;;;;;3.17;2.97;;;-0.30;99.90;;;;;;5035979;28;20197;-68
2022/03/10 03:37:50;;;;;;;4.43;4.10;;;-0.20;99.90;;;;;;5054161;28;20176;-68
2022/03/10 03:40:16;;;;;;;5.77;4.63;;;-0.30;99.90;;;;;;5054006;28;20237;-68
2022/03/10 03:42:42;;;;;;;2.90;2.60;;;-0.40;99.90;;;;;;5054262;28;20173;-68
2022/03/10 03:45:08;;;;;;;7.43;6.70;;;-0.40;99.90;;;;;;5053859;28;20190;-68
2022/03/10 03:47:34;;;;;;;5.38;4.82;;;-0.50;99.90;;;;;;5054019;28;20247;-67
2022/03/10 03:49:59;;;;;;;14.53;5.60;;;-0.40;99.90;;;;;;5054059;28;20165;-68
2022/03/10 03:52:25;;;;;;;4.77;3.37;;;-0.50;99.90;;;;;;5035760;28;20174;-68
2022/03/10 03:54:50;;;;;;;5.67;3.90;;;-0.50;99.90;;;;;;5053603;28;20186;-68
2022/03/10 03:57:16;;;;;;;9.37;4.80;;;-0.50;99.90;;;;;;5053987;28;20172;-67
2022/03/10 03:59:42;;;;;;;13.20;4.90;;;-0.40;99.90;;;;;;5053397;28;20723;-66
2022/03/10 04:02:08;;;;;;;5.73;5.23;;;-0.40;99.90;;;;;;5053839;28;20173;-69
2022/03/10 04:04:33;;;;;;;4.55;3.58;;;-0.50;99.90;;;;;;5053231;28;20205;-68
2022/03/10 04:06:59;;;;;;;3.70;3.30;;;-0.50;99.90;;;;;;5053612;28;20204;-67
2022/03/10 04:09:25;;;;;;;3.37;3.10;;;-0.50;99.90;;;;;;5053329;28;20181;-67
2022/03/10 04:11:50;;;;;;;5.50;4.23;;;-0.50;99.90;;;;;;5053750;28;20162;-68
2022/03/10 04:14:18;;;;;;;4.43;4.00;;;-0.60;99.90;;;;;;5035309;28;20240;-67
2022/03/10 04:16:43;;;;;;;3.60;3.42;;;-0.60;99.90;;;;;;5053668;28;20527;-67
2022/03/10 04:19:09;;;;;;;2.37;2.20;;;-0.60;99.90;;;;;;5053298;28;20173;-68
2022/03/10 04:21:35;;;;;;;10.23;3.70;;;-0.70;99.90;;;;;;5053768;28;20560;-67
2022/03/10 04:24:00;;;;;;;4.43;3.27;;;-0.70;99.90;;;;;;5052974;28;20177;-67
2022/03/10 04:26:26;;;;;;;16.07;4.20;;;-0.70;99.90;;;;;;5053420;28;20552;-67
2022/03/10 04:28:52;;;;;;;2.97;2.87;;;-0.70;99.90;;;;;;5053202;28;20177;-68
2022/03/10 04:31:17;;;;;;;4.00;3.70;;;-0.70;99.90;;;;;;5053509;28;20173;-68
2022/03/10 04:33:43;;;;;;;3.90;3.67;;;-0.80;99.90;;;;;;5052905;28;20170;-68
2022/03/10 04:36:09;;;;;;;4.83;4.33;;;-0.80;99.90;;;;;;5053340;28;20181;-68
2022/03/10 04:38:34;;;;;;;4.07;3.67;;;-0.80;99.90;;;;;;5053445;28;20524;-68
2022/03/10 04:41:00;;;;;;;9.40;2.80;;;-0.80;99.90;;;;;;5052993;28;20170;-67
2022/03/10 04:43:26;;;;;;;4.80;4.40;;;-0.90;99.90;;;;;;5053019;28;20603;-67
2022/03/10 04:45:52;;;;;;;7.43;4.10;;;-0.80;99.90;;;;;;5053100;28;20196;-67
2022/03/10 04:48:18;;;;;;;6.07;4.68;;;-0.90;99.90;;;;;;5053241;28;20207;-68
2022/03/10 04:50:43;;;;;;;5.37;4.83;;;-0.90;99.90;;;;;;5052973;28;20169;-68
2022/03/10 04:53:09;;;;;;;6.97;4.53;;;-0.90;99.90;;;;;;5052809;28;20176;-68
2022/03/10 04:55:35;;;;;;;5.30;4.20;;;-0.90;99.90;;;;;;5052986;28;20220;-67
2022/03/10 04:58:00;;;;;;;3.70;3.33;;;-0.90;99.90;;;;;;5053446;28;20396;-68
2022/03/10 05:00:26;;;;;;;6.33;4.13;;;-0.90;99.90;;;;;;5053005;28;20242;-68
2022/03/10 05:02:52;;;;;;;6.63;3.63;;;-0.90;99.90;;;;;;5052852;28;20231;-67
2022/03/10 05:05:18;;;;;;;2.77;2.57;;;-1.00;99.90;;;;;;5052358;28;20212;-67
2022/03/10 05:07:45;;;;;;;5.40;3.55;;;-1.00;99.90;;;;;;5053011;28;20229;-67
2022/03/10 05:10:12;;;;;;;4.28;3.90;;;-1.00;99.90;;;;;;5052652;28;20181;-67
2022/03/10 05:12:56;;;;;;;7.35;3.97;;;-1.00;99.90;;;;;;5052876;28;20643;-68
2022/03/10 05:15:24;;;;;;;5.20;4.68;;;-1.00;99.90;;;;;;5052554;28;20875;-67
2022/03/10 05:17:50;;;;;;;5.60;4.68;;;-1.00;99.90;;;;;;5052838;28;20652;-68
2022/03/10 05:20:17;;;;;;;6.53;4.18;;;-1.00;99.90;;;;;;5052644;28;20609;-68
2022/03/10 05:22:45;;;;;;;4.75;4.28;;;-1.00;99.90;;;;;;5052501;28;20540;-73
2022/03/10 05:25:12;;;;;;;5.88;4.13;;;-1.00;99.90;;;;;;5052512;28;20189;-67
2022/03/10 05:27:38;;;;;;;9.80;4.32;;;-1.00;99.90;;;;;;5052868;28;20615;-68
2022/03/10 05:30:05;;;;;;;4.50;3.93;;;-1.00;99.90;;;;;;5052373;28;20252;-68
2022/03/10 05:32:31;;;;;;;4.82;3.28;;;-1.00;99.90;;;;;;5052960;28;20165;-68
2022/03/10 05:34:56;;;;;;;6.03;5.53;;;-1.00;99.90;;;;;;5052205;28;20201;-68
2022/03/10 05:37:24;;;;;;;4.73;3.80;;;-1.00;99.90;;;;;;5052788;28;20192;-67
2022/03/10 05:39:50;;;;;;;7.88;4.60;;;-1.10;99.90;;;;;;5051427;28;20599;-68
2022/03/10 05:42:16;;;;;;;4.97;4.07;;;-1.10;99.90;;;;;;5051187;28;20205;-67
2022/03/10 05:44:41;;;;;;;2.97;2.70;;;-1.10;99.90;;;;;;5050721;28;20228;-68
2022/03/10 05:47:09;;;;;;;7.80;4.60;;;-1.10;99.90;;;;;;5051856;28;20258;-69
2022/03/10 05:49:35;;;;;;;3.47;2.95;;;-1.00;99.90;;;;;;5052021;28;20416;-68
2022/03/10 05:52:01;;;;;;;9.35;3.67;;;-1.00;99.90;;;;;;5052311;28;20220;-68
2022/03/10 05:54:27;;;;;;;9.10;5.40;;;-1.00;99.90;;;;;;5053913;28;20209;-68
2022/03/10 05:56:52;;;;;;;5.20;4.73;;;-1.00;99.90;;;;;;5055495;28;20483;-69
2022/03/10 05:59:19;;;;;;;3.20;3.00;;;-1.00;99.90;;;;;;5055452;28;20198;-67
2022/03/10 06:01:45;;;;;;;3.28;2.60;;;-1.00;99.90;;;;;;5055724;28;20165;-69
2022/03/10 06:04:11;;;;;;;5.38;3.85;;;-0.90;99.90;;;;;;5055168;28;20186;-68
2022/03/10 06:06:37;;;;;;;3.80;3.60;;;-0.80;99.90;;;;;;5054802;28;20208;-69
2022/03/10 06:09:03;;;;;;;5.10;3.90;;;-0.70;99.90;;;;;;5064799;28;20486;-70
2022/03/10 06:11:29;;;;;;;6.73;4.17;;;-0.50;99.90;;;;;;5075606;28;20169;-70
2022/03/10 06:13:55;;;;;;;4.28;3.83;;;-0.20;99.90;;;;;;5058957;28;20169;-69
2022/03/10 06:16:21;;;;;;;6.27;5.27;;;0.10;99.90;;;;;;5053641;28;20566;-69
2022/03/10 06:18:47;;;;;;;6.03;4.68;;;0.40;99.90;;;;;;5035227;28;20950;-69
2022/03/10 06:21:13;;;;;;;6.10;5.37;;;0.60;99.90;;;;;;5053319;28;20222;-69
2022/03/10 06:23:38;;;;;;;7.00;5.73;;;0.90;99.90;;;;;;5052698;28;20188;-69
2022/03/10 06:26:04;;;;;;;8.70;3.95;;;1.20;99.90;;;;;;5052920;28;20189;-70
2022/03/10 06:28:31;;;;;;;5.40;3.80;;;1.60;99.90;;;;;;5052824;28;20166;-69
2022/03/10 06:30:56;;;;;;;6.82;5.20;;;1.90;99.90;;;;;;5054187;28;20176;-68
2022/03/10 06:33:22;;;;;;;11.90;6.17;;;2.40;99.90;;;;;;5055124;28;20165;-68
2022/03/10 06:35:48;;;;;;;6.10;5.33;;;2.90;99.30;;;;;;5037378;28;20435;-66
2022/03/10 06:38:13;;;;;;;11.23;5.00;;;3.60;97.60;;;;;;5037146;28;20256;-66
2022/03/10 06:40:39;;;;;;;6.70;5.97;;;4.20;96.00;;;;;;5054211;28;20170;-66
2022/03/10 06:43:05;;;;;;;8.70;6.50;;;4.90;94.40;;;;;;5061544;28;20172;-69
2022/03/10 06:45:31;;;;;;;5.47;4.97;;;5.50;92.40;;;;;;5075114;28;20195;-67
2022/03/10 06:47:58;;;;;;;6.43;5.82;;;5.90;91.60;;;;;;5060653;28;20567;-67
2022/03/10 06:50:24;;;;;;;5.55;5.05;;;6.30;90.60;;;;;;5055032;28;20174;-67
2022/03/10 06:52:52;;;;;;;7.80;5.85;;;6.60;88.40;;;;;;5054673;28;20248;-67
2022/03/10 06:55:19;;;;;;;7.97;5.72;;;6.90;85.90;;;;;;5054385;28;20186;-68
2022/03/10 06:57:46;;;;;;;7.05;5.25;;;7.20;85.50;;;;;;5054761;28;20658;-68
2022/03/10 07:00:12;;;;;;;10.15;6.47;;;7.50;83.40;;;;;;5054354;28;20199;-71
2022/03/10 07:02:39;;;;;;;9.50;8.50;;;7.70;82.10;;;;;;5054756;28;20168;-67
2022/03/10 07:05:07;;;;;;;8.43;5.88;;;7.70;81.10;;;;;;5053128;28;20209;-65
2022/03/10 07:07:33;;;;;;;10.98;7.47;;;7.70;80.60;;;;;;5054673;28;20193;-68
2022/03/10 07:09:58;;;;;;;7.57;6.03;;;8.00;80.70;;;;;;5054169;28;20184;-67
2022/03/10 07:12:27;;;;;;;9.10;7.53;;;8.50;80.40;;;;;;5054805;28;20308;-67
2022/03/10 07:14:53;;;;;;;8.13;6.43;;;8.90;78.30;;;;;;5035762;28;20223;-69
2022/03/10 07:17:19;;;;;;;10.03;6.40;;;9.10;76.70;;;;;;5054181;28;20838;-69
2022/03/10 07:19:45;;;;;;;13.80;9.37;;;9.20;76.00;;;;;;5054155;28;20494;-68
2022/03/10 07:22:12;;;;;;;13.17;7.73;;;9.40;74.90;;;;;;5053863;28;20192;-67
2022/03/10 07:24:37;;;;;;;10.40;7.60;;;9.50;73.60;;;;;;5054087;28;20488;-67
2022/03/10 07:27:03;;;;;;;9.77;7.67;;;9.80;74.00;;;;;;5054104;28;20463;-69
2022/03/10 07:29:29;;;;;;;9.37;7.20;;;10.40;71.30;;;;;;5054051;28;20169;-70
2022/03/10 07:31:55;;;;;;;9.23;7.00;;;10.90;69.10;;;;;;5053937;28;20438;-68
2022/03/10 07:34:20;;;;;;;10.17;7.97;;;11.30;66.90;;;;;;5053764;28;20420;-69
2022/03/10 07:36:46;;;;;;;8.17;7.40;;;11.70;65.60;;;;;;5054108;28;20172;-66
2022/03/10 07:39:12;;;;;;;8.27;6.93;;;12.20;64.60;;;;;;5053907;28;20176;-66
2022/03/10 07:41:37;;;;;;;8.67;7.40;;;12.70;63.70;;;;;;5053499;28;20181;-67
2022/03/10 07:44:03;;;;;;;9.23;6.97;;;13.40;61.50;;;;;;5052826;28;20208;-66
2022/03/10 07:46:29;;;;;;;8.20;7.47;;;13.90;59.80;;;;;;5053212;28;20192;-66
2022/03/10 07:48:54;;;;;;;7.40;6.43;;;14.10;58.60;;;;;;5053628;28;20182;-65
2022/03/10 07:51:20;;;;;;;12.93;7.60;;;14.10;58.20;;;;;;5053327;28;20204;-65
2022/03/10 07:53:46;;;;;;;9.73;7.40;;;14.40;58.00;;;;;;5035345;28;20579;-64
2022/03/10 07:56:12;;;;;;;9.23;7.30;;;14.90;57.20;;;;;;5053535;28;20432;-64
2022/03/10 07:58:37;;;;;;;8.20;7.30;;;15.40;56.20;;;;;;5054012;28;20460;-64
2022/03/10 08:01:03;;;;;;;7.87;6.83;;;15.60;55.20;;;;;;5053399;28;20178;-67
2022/03/10 08:03:29;;;;;;;8.67;7.60;;;15.90;54.80;;;;;;5053417;28;20247;-67
2022/03/10 08:05:55;;;;;;;8.80;6.90;;;16.10;54.50;;;;;;5053570;28;20663;-65
2022/03/10 08:08:21;;;;;;;8.90;7.33;;;16.50;53.80;;;;;;5053560;28;20284;-66
2022/03/10 08:10:46;;;;;;;8.57;7.77;;;16.60;53.00;;;;;;5053240;28;20486;-64
2022/03/10 08:13:12;;;;;;;9.70;8.63;;;16.80;52.40;;;;;;5033505;28;20401;-64
2022/03/10 08:15:40;;;;;;;8.60;7.73;;;17.20;53.00;;;;;;5033657;28;20198;-64
2022/03/10 08:18:06;;;;;;;9.47;7.27;;;17.70;51.70;;;;;;5051709;28;20245;-64
2022/03/10 08:20:33;;;;;;;9.80;8.80;;;18.10;51.40;;;;;;5053103;28;20405;-63
2022/03/10 08:22:59;;;;;;;8.70;7.80;;;18.10;50.90;;;;;;5058719;28;20445;-64
2022/03/10 08:25:24;;;;;;;9.70;8.70;;;18.30;50.60;;;;;;5055238;28;20416;-64
2022/03/10 08:27:50;;;;;;;8.90;7.63;;;18.50;50.20;;;;;;5035518;28;20247;-63
2022/03/10 08:30:16;;;;;;;10.77;8.10;;;18.60;50.00;;;;;;5052951;28;20184;-65
2022/03/10 08:32:45;;;;;;;9.57;7.70;;;18.80;50.00;;;;;;5053507;28;20174;-63
2022/03/10 08:35:11;;;;;;;8.30;7.27;;;19.10;49.40;;;;;;5052649;28;20422;-66
2022/03/10 08:37:37;;;;;;;10.07;8.30;;;19.30;48.90;;;;;;5053202;28;20450;-63
2022/03/10 08:40:03;;;;;;;7.37;6.53;;;19.50;48.70;;;;;;5052663;28;20428;-63
2022/03/10 08:42:29;;;;;;;8.73;7.87;;;19.70;48.80;;;;;;5052764;28;20188;-63
2022/03/10 08:44:54;;;;;;;8.30;7.43;;;20.30;48.10;;;;;;5052094;28;20925;-65
2022/03/10 08:47:20;;;;;;;7.97;7.23;;;20.70;46.60;;;;;;5053254;28;20295;-64
2022/03/10 08:49:46;;;;;;;9.60;7.07;;;21.00;46.60;;;;;;5052717;28;20181;-65
2022/03/10 08:52:11;;;;;;;7.80;7.00;;;21.70;46.30;;;;;;5034944;28;20181;-65
2022/03/10 08:54:37;;;;;;;7.70;6.93;;;22.20;45.00;;;;;;5052619;28;20200;-65
2022/03/10 08:57:03;;;;;;;8.70;7.50;;;22.30;44.80;;;;;;5052727;28;20178;-64
2022/03/10 08:59:29;;;;;;;7.40;6.07;;;22.90;44.10;;;;;;5052956;28;20165;-65
2022/03/10 09:01:54;;;;;;;8.17;7.37;;;23.50;43.40;;;;;;5052918;28;20414;-65
2022/03/10 09:04:20;;;;;;;7.70;6.97;;;23.80;43.40;;;;;;5052298;28;20213;-65
2022/03/10 09:06:46;;;;;;;9.63;6.37;;;23.90;42.60;;;;;;5052441;28;20201;-65
2022/03/10 09:09:12;;;;;;;6.90;6.20;;;23.90;42.70;;;;;;5052858;28;20664;-65
2022/03/10 09:11:38;;;;;;;8.50;6.80;;;24.10;42.10;;;;;;5052980;28;20524;-66
2022/03/10 09:14:04;;;;;;;7.03;6.40;;;24.20;41.20;;;;;;5052146;28;20157;-65
2022/03/10 09:16:30;;;;;;;6.60;6.00;;;24.10;41.80;;;;;;5052893;28;20379;-65
2022/03/10 09:18:55;;;;;;;8.17;6.57;;;24.40;41.60;;;;;;5052266;28;20422;-65
2022/03/10 09:21:21;;;;;;;6.70;6.10;;;25.00;41.40;;;;;;5034702;28;20405;-65
2022/03/10 09:23:47;;;;;;;8.40;6.97;;;25.40;40.60;;;;;;5051801;28;20188;-65
2022/03/10 09:26:12;;;;;;;7.10;6.40;;;25.80;39.50;;;;;;5052458;28;20199;-66
2022/03/10 09:28:38;;;;;;;7.47;6.63;;;25.60;39.10;;;;;;5053187;28;20182;-67
2022/03/10 09:31:04;;;;;;;6.13;5.53;;;25.40;39.30;;;;;;5038408;28;20169;-69
2022/03/10 09:33:30;;;;;;;6.47;5.93;;;25.10;39.00;;;;;;5055515;28;20170;-67
2022/03/10 09:35:56;;;;;;;6.67;6.07;;;23.90;39.30;;;;;;5055958;28;20202;-67
2022/03/10 09:38:22;;;;;;;5.80;5.23;;;23.50;39.90;;;;;;5055606;28;20201;-68
2022/03/10 09:40:52;;;;;;;5.77;5.27;;;23.50;40.10;;;;;;5055761;28;20386;-68
2022/03/10 09:43:23;;;;;;;6.20;5.53;;;23.60;40.00;;;;;;5055890;28;20374;-66
2022/03/10 09:45:52;;;;;;;6.23;4.97;;;23.70;39.70;;;;;;5037413;28;20422;-67
2022/03/10 09:48:18;;;;;;;6.33;5.73;;;24.00;39.90;;;;;;5055718;28;20424;-67
2022/03/10 09:50:46;;;;;;;5.20;4.80;;;24.30;39.80;;;;;;5055573;28;20895;-67
2022/03/10 09:53:11;;;;;;;5.43;4.93;;;24.60;39.60;;;;;;5055121;28;20398;-67
2022/03/10 09:55:37;;;;;;;5.67;5.17;;;24.60;39.10;;;;;;5050126;28;20999;-66
2022/03/10 09:58:05;;;;;;;6.20;5.13;;;24.70;39.40;;;;;;5055171;28;20202;-65
2022/03/10 10:00:31;;;;;;;5.67;5.10;;;24.50;38.70;;;;;;5055752;28;20709;-65
2022/03/10 10:02:57;;;;;;;10.20;8.47;;;24.60;38.70;;;;;;5055623;28;20482;-67
2022/03/10 10:05:24;;;;;;;6.07;5.07;;;24.60;38.40;;;;;;5055111;28;20205;-66
2022/03/10 10:08:09;;;;;;;3.90;3.50;;;24.70;38.60;;;;;;5055349;28;20383;-66
2022/03/10 10:10:39;;;;;;;5.73;4.20;;;24.80;37.70;;;;;;5055306;28;20749;-67
2022/03/10 10:13:08;;;;;;;4.13;3.70;;;24.70;37.70;;;;;;5055109;28;20454;-66
2022/03/10 10:15:35;;;;;;;5.33;3.80;;;24.50;37.60;;;;;;5055412;28;20804;-65
2022/03/10 10:18:01;;;;;;;4.77;4.10;;;24.20;37.50;;;;;;5054580;28;20466;-65
2022/03/10 10:20:31;;;;;;;3.87;3.47;;;23.90;37.50;;;;;;5055361;28;20396;-65
2022/03/10 10:23:15;;;;;;;4.10;3.73;;;23.70;37.20;;;;;;5055521;28;20407;-65
2022/03/10 10:25:48;;;;;;;3.83;3.53;;;23.20;37.50;;;;;;5055166;28;20415;-64
2022/03/10 10:28:31;;;;;;;3.53;3.23;;;22.80;37.60;;;;;;5054989;28;20755;-65
2022/03/10 10:31:12;;;;;;;2.87;2.57;;;22.50;38.10;;;;;;5050225;28;20432;-67
2022/03/10 10:33:40;;;;;;;2.23;2.03;;;22.00;37.90;;;;;;5052734;28;20426;-64
2022/03/10 10:36:24;;;;;;;2.40;2.20;;;21.70;37.70;;;;;;5054904;28;20419;-66
2022/03/10 10:38:53;;;;;;;2.40;1.80;;;21.20;38.10;;;;;;5035411;28;20439;-67
2022/03/10 10:41:30;;;;;;;2.50;2.30;;;20.80;38.10;;;;;;5054912;28;20378;-66
2022/03/10 10:43:59;;;;;;;2.33;2.13;;;20.50;39.00;;;;;;5054525;28;20387;-66
2022/03/10 10:46:42;;;;;;;2.17;1.97;;;20.50;39.20;;;;;;5054740;28;20486;-67
2022/03/10 10:49:20;;;;;;;2.20;2.00;;;20.50;39.00;;;;;;5043516;28;20975;-65
2022/03/10 10:51:48;;;;;;;2.30;2.10;;;20.40;38.70;;;;;;5055055;28;20477;-65
2022/03/10 10:54:23;;;;;;;2.17;2.00;;;20.30;38.40;;;;;;5053732;28;20764;-65
2022/03/10 10:56:54;;;;;;;1.60;1.43;;;20.10;38.70;;;;;;5054879;28;20560;-65
2022/03/10 10:59:34;;;;;;;2.10;2.00;;;19.90;39.00;;;;;;5054590;28;20529;-65
2022/03/10 11:02:20;;;;;;;1.77;1.63;;;19.80;39.40;;;;;;5054857;28;20421;-64
2022/03/10 11:04:50;;;;;;;3.30;3.00;;;19.60;39.00;;;;;;5053274;28;20479;-64
2022/03/10 11:07:17;;;;;;;2.50;2.30;;;19.40;39.20;;;;;;5054180;28;20406;-64
2022/03/10 11:09:45;;;;;;;4.10;2.00;;;19.10;39.30;;;;;;5054893;28;20412;-65
2022/03/10 11:12:13;;;;;;;2.23;2.03;;;19.00;39.40;;;;;;5054436;28;20819;-65
2022/03/10 11:14:40;;;;;;;2.03;1.90;;;19.00;39.70;;;;;;5054111;28;20535;-64
2022/03/10 11:17:07;;;;;;;1.90;1.63;;;19.00;39.60;;;;;;5035933;28;20812;-65
2022/03/10 11:19:35;;;;;;;1.83;1.73;;;19.10;39.50;;;;;;5036411;28;20419;-65
2022/03/10 11:22:07;;;;;;;1.40;1.30;;;18.90;39.10;;;;;;5054123;28;20938;-65
2022/03/10 11:24:51;;;;;;;2.20;1.90;;;18.80;39.00;;;;;;5035539;28;20818;-65
2022/03/10 11:27:26;;;;;;;1.77;1.60;;;18.50;39.10;;;;;;5054467;28;20428;-64
2022/03/10 11:29:55;;;;;;;2.40;2.20;;;17.80;39.60;;;;;;5053973;28;20497;-65
2022/03/10 11:32:31;;;;;;;1.63;1.53;;;17.20;40.30;;;;;;5053897;28;20435;-63
2022/03/10 11:35:00;;;;;;;2.67;2.33;;;16.50;40.80;;;;;;5043263;28;20942;-66
2022/03/10 11:37:40;;;;;;;1.50;1.40;;;16.00;41.20;;;;;;5053495;28;20819;-64
2022/03/10 11:40:11;;;;;;;1.40;1.30;;;15.60;41.00;;;;;;5053982;28;20426;-62
2022/03/10 11:42:37;;;;;;;2.13;1.93;;;15.30;41.20;;;;;;5053338;28;20414;-63
2022/03/10 11:45:15;;;;;;;1.37;1.27;;;15.10;41.90;;;;;;5052733;28;20435;-64
2022/03/10 11:47:40;;;;;;;1.50;1.30;;;15.00;42.00;;;;;;5044953;28;20455;-64
2022/03/10 11:50:39;;;;;;;0.93;0.93;;;14.80;42.40;;;;;;5053686;28;20470;-64
2022/03/10 11:53:05;;;;;;;1.63;1.53;;;14.70;41.90;;;;;;5004552;28;20188;-69
2022/03/10 11:55:51;;;;;;;2.43;1.30;;;14.60;42.50;;;;;;5053511;28;21300;-62
2022/03/10 11:58:30;;;;;;;1.80;1.70;;;14.50;42.60;;;;;;5053414;28;20553;-64
2022/03/10 12:00:59;;;;;;;1.33;1.10;;;14.50;42.60;;;;;;5053527;28;20421;-64
2022/03/10 12:03:25;;;;;;;2.33;2.07;;;14.50;42.80;;;;;;5052426;28;20443;-67
2022/03/10 12:05:53;;;;;;;2.70;1.87;;;14.50;42.80;;;;;;5053319;28;20931;-65
2022/03/10 12:08:20;;;;;;;2.33;2.13;;;14.50;43.60;;;;;;5053418;28;20179;-65
2022/03/10 12:10:47;;;;;;;3.03;2.60;;;14.50;43.90;;;;;;5053347;28;20905;-63
2022/03/10 12:13:26;;;;;;;3.20;2.33;;;14.40;43.20;;;;;;5052917;28;20453;-64
2022/03/10 12:15:51;;;;;;;4.00;2.37;;;14.40;43.90;;;;;;5053694;28;20794;-64
2022/03/10 12:18:20;;;;;;;4.10;2.43;;;14.40;44.20;;;;;;5053305;28;20450;-65
2022/03/10 12:20:48;;;;;;;1.93;1.83;;;14.40;43.50;;;;;;5053512;28;20163;-64
2022/03/10 12:23:15;;;;;;;2.50;2.30;;;14.40;43.60;;;;;;5052712;28;20756;-67
2022/03/10 12:25:47;;;;;;;3.60;2.47;;;14.40;43.50;;;;;;5053253;28;20466;-67
2022/03/10 12:28:27;;;;;;;2.70;2.10;;;14.40;43.50;;;;;;5053207;28;21001;-67
2022/03/10 12:31:07;;;;;;;2.43;2.23;;;14.50;43.00;;;;;;5053283;28;20387;-65
2022/03/10 12:33:35;;;;;;;3.57;2.80;;;14.50;43.00;;;;;;5052224;28;20418;-66
2022/03/10 12:36:01;;;;;;;2.07;1.90;;;14.40;43.30;;;;;;5053008;28;20480;-64
2022/03/10 12:38:38;;;;;;;2.53;2.33;;;14.40;43.60;;;;;;5053104;28;20521;-67
2022/03/10 12:41:04;;;;;;;2.67;2.47;;;14.50;43.60;;;;;;5053059;28;20976;-65
2022/03/10 12:43:30;;;;;;;5.87;2.93;;;14.50;43.40;;;;;;5052468;28;20417;-67
2022/03/10 12:45:57;;;;;;;2.47;2.27;;;14.50;42.80;;;;;;5053045;28;20439;-66
2022/03/10 12:48:44;;;;;;;2.37;2.17;;;14.50;41.80;;;;;;5054586;28;20943;-65
2022/03/10 12:51:23;;;;;;;3.03;2.50;;;14.50;42.20;;;;;;5054246;28;20430;-64
2022/03/10 12:53:49;;;;;;;9.50;2.50;;;14.60;42.40;;;;;;5053140;28;20417;-69
2022/03/10 12:56:15;;;;;;;2.70;1.90;;;14.60;42.20;;;;;;5063611;28;20425;-65
2022/03/10 12:58:40;;;;;;;2.73;2.53;;;14.60;40.20;;;;;;5074606;28;20520;-64